Ashland, OR (97520)

1:35 PM PST on February 14, 2016 (GMT -0800)
Tolman Creek Mountain | | Change Station
CLOSE
Current Station
Personal Weather Station
Location: Ashland, OR
Elevation: 2884 ft
Nearby Weather Stations

Elev 2884 ft 42.16 °N, 122.67 °W | Updated 12 minutes ago

Overcast
Overcast
49.3 °F
Feels Like 49 °F
N
2.2
Wind Variable Wind from SSE

Today
High -- | Low -- °F
--% Chance of Precip.
Yesterday
High -- | Low -- °F
Precip. -- in
Pressure 30.40 in
Visibility 10.0 miles
Clouds Scattered Clouds 800 ft
Mostly Cloudy 3300 ft
Overcast 6500 ft
Windchill 49 °F
Dew Point 47 °F
Humidity 93%
Rainfall 0.00 in
Snow Depth Not available.
7:08 AM 5:41 PM
Waxing Crescent, 45% visible
METAR KMFR 142053Z 20003KT 10SM SCT008 BKN033 OVC065 12/08 A3040 RMK AO2 RAB32E44 SLP294 P0000 60000 T01170078 58005
Pressure 30.40 in
Visibility 10.0 miles
Clouds Scattered Clouds 800 ft
Mostly Cloudy 3300 ft
Overcast 6500 ft
Windchill 49 °F
Dew Point 47 °F
Humidity 93%
Rainfall 0.00 in
Snow Depth Not available.
7:08 AM 5:41 PM
Waxing Crescent, 45% visible
METAR KMFR 142053Z 20003KT 10SM SCT008 BKN033 OVC065 12/08 A3040 RMK AO2 RAB32E44 SLP294 P0000 60000 T01170078 58005

10-Day Weather Forecast

Almanac

Astronomy

Feb. 14, 2016 Rise Set
Actual Time
Civil Twilight
Nautical Twilight
Astronomical Twilight
Moon
Length of Visible Light
Length of Day
Tomorrow will be .
, % of the Moon is Illuminated

Today's Extremes

State Highs State Lows

Community

WunderPhotos

Upload Photos

1,892,890 photos uploaded!

WunderBlog® & News

Nearby

Air Quality

  Air Quality AQ Index Pollutant
Not available.

Snow Depth

Station Depth Elevation

Earthquake Activity

City Distance Mag. Time & Date
Minimum magnitude displayed is 2.5.

Coastal Water Temperatures

Place Temperature

Stations

Nearby Weather Stations

Station Location Temp. Windchill Dew Point Humidity Wind Precip. Elev Updated Type
                   

Watches & Warnings

There are currently no watches in effect.